Grenora, ND (58845)

12:24 PM CDT on July 10, 2014 (GMT -0500)
KNDALAMO3 Elev 2090 ft | 48.49 °N, 103.51 °W | Change Station

Current weather conditions updated 7 minutes ago

Clear
Clear
74.7 °F
Feels Like 76 °F
N
11.0
Wind Variable Wind from South
Gusts 18.0 mph

Today is forecast to be Much Warmer than yesterday.

Today
High -- | Low -- °F
--% Chance of Precip.
Yesterday
High -- | Low -- °F
Precip. -- in
6:04 AM 9:57 PM
Waxing Gibbous, 96% visible
Pressure 29.74 in
Visibility 10.0 miles
Clouds Clear
Heat Index 76 °F
Dew Point 65 °F
Humidity 72%
Rainfall 0.02 in
Snow Depth Not available.
UV 7.1 out of 12
Pollen 5.10 out of 12
Air Quality Not available.
Flu Activity Sporadic
METAR KISN 101652Z AUTO 21006KT 10SM CLR 24/17 A2977 RMK AO2 SLP069 T02440167

More Conditions Fewer Conditions

Pressure 29.74 in
Visibility 10.0 miles
Clouds Clear
Heat Index 76 °F
Dew Point 65 °F
Humidity 72%
Rainfall 0.02 in
Snow Depth Not available.
UV 7.1 out of 12
Pollen 5.10 out of 12
Air Quality Not available.
Flu Activity Sporadic
METAR KISN 101652Z AUTO 21006KT 10SM CLR 24/17 A2977 RMK AO2 SLP069 T02440167

More Conditions Fewer Conditions

10-Day Weather Forecast

Almanac

Astronomy

Jul. 10, 2014 Rise Set
Actual Time 6:04 AM CDT 9:57 PM CDT
Civil Twilight 5:23 AM CDT 10:37 PM CDT
Nautical Twilight 4:27 AM CDT 11:33 PM CDT
Astronomical Twilight 2:58 AM CDT 1:00 AM CDT
Moon 8:07 PM CDT 4:23 AM CDT
Length of Visible Light 17h 14m
Length of Day
15h 52m
Tomorrow will be 1m 37s shorter.
Waxing Gibbous, 96% of the Moon is Illuminated
Today
Waxing Gibbous
Jul 12
Full
Jul 18
Last Quarter
Jul 26
New
Aug 3
First Quarter

Today's Extremes

State Highs State Lows

Community

WunderPhotos

Upload Photos

1,732,201 photos uploaded!

WunderBlogs® & News

Nearby

Snow Depth

Station Depth Elevation
No new snow has been reported.

Earthquake Activity

City Distance Mag. Time & Date
No recent earthquake activity has been reported nearby.
Minimum magnitude displayed is 2.5.

Coastal Water Temperatures

Place Temperature
No Stations Reporting

Nearby Weather Stations

Station Location Temp. Heat Index Dew Point Humidity Wind Precip. Elev Updated Type
MesoWest KATY LAKE , Dagmar, MT 72 °F 74 °F 63 °F 73% North  at  0 mph 0.00 in / hr 2000 ft 10:03 AM MDT MADIS
MesoWest COALRIDGE , Dagmar, MT 73 °F 75 °F 63 °F 69% North  at  0 mph 0.00 in / hr 2158 ft 10:03 AM MDT MADIS
Alamo, ND 74.7 °F 76 °F 65 °F 72% South  at  11.0 mph 0.00 in / hr 2090 ft 12:17 PM CDT Normal
MesoWest SAND CREEK , Froid, MT 72 °F 73 °F 64 °F 78% North  at  0 mph 0.00 in / hr 2214 ft 10:03 AM MDT MADIS
Valhalla, Williston, ND 77.9 °F 80 °F 73 °F 85% WSW  at  13.2 mph 0.00 in / hr 2040 ft 12:24 PM CDT Rapid Fire
MesoWest NORTH MEDICINE LAKE , Medicine Lake, MT 72 °F 73 °F 64 °F 78% North  at  0 mph 0.00 in / hr 2105 ft 10:03 AM MDT MADIS

Show More Stations Show Fewer Stations